Terminal Aerodrome Forecast
Issued by NWS

Home | Current Version | Previous Version | Graphics & Text | Print | Product List | Glossary Off
Versions: 1 2 3 4 5 6 7 8 9 10 11 12 13 14 15 16 17 18 19 20 21 22 23 24 25 26 27 28 29 30

000
FTUS45 KGGW 311728
TAFOLF
TAF
KOLF 311728Z 3118/0118 34022G30KT P6SM -SHRA SCT020 OVC035
     FM312000 34025G35KT P6SM -SHRA OVC025
     FM010000 33017G25KT P6SM VCTS BKN035CB
     FM010300 33008KT P6SM BKN040
     FM010600 31005KT P6SM FEW045
     FM010900 29004KT P6SM FEW150=

USA.gov is the U.S. government's official web portal to all federal, state and local government web resources and services.